sensor_id;sensor_type;location;lat;lon;timestamp;P1;durP1;ratioP1;P2;durP2;ratioP2
2039;SDS011;1025;42.686;23.350;2023-04-29T00:00:39;6.30;;;5.70;;
2039;SDS011;1025;42.686;23.350;2023-04-29T00:03:06;8.93;;;4.83;;
2039;SDS011;1025;42.686;23.350;2023-04-29T00:05:33;6.57;;;5.50;;
2039;SDS011;1025;42.686;23.350;2023-04-29T00:08:00;8.53;;;6.37;;
2039;SDS011;1025;42.686;23.350;2023-04-29T00:10:28;6.13;;;5.53;;
2039;SDS011;1025;42.686;23.350;2023-04-29T00:12:54;5.93;;;5.43;;
2039;SDS011;1025;42.686;23.350;2023-04-29T00:15:21;10.07;;;5.97;;
2039;SDS011;1025;42.686;23.350;2023-04-29T00:17:47;5.27;;;4.60;;
2039;SDS011;1025;42.686;23.350;2023-04-29T00:20:14;6.97;;;5.67;;
2039;SDS011;1025;42.686;23.350;2023-04-29T00:22:41;9.50;;;7.50;;
2039;SDS011;1025;42.686;23.350;2023-04-29T00:25:08;10.40;;;7.50;;
2039;SDS011;1025;42.686;23.350;2023-04-29T00:27:37;9.50;;;7.27;;
2039;SDS011;1025;42.686;23.350;2023-04-29T00:30:05;23.40;;;11.40;;
2039;SDS011;1025;42.686;23.350;2023-04-29T00:32:32;8.80;;;7.90;;
2039;SDS011;1025;42.686;23.350;2023-04-29T00:34:58;8.33;;;7.40;;
2039;SDS011;1025;42.686;23.350;2023-04-29T00:37:25;10.50;;;8.90;;
2039;SDS011;1025;42.686;23.350;2023-04-29T00:39:52;10.27;;;9.17;;
2039;SDS011;1025;42.686;23.350;2023-04-29T00:42:19;11.83;;;8.43;;
2039;SDS011;1025;42.686;23.350;2023-04-29T00:44:47;7.67;;;6.97;;
2039;SDS011;1025;42.686;23.350;2023-04-29T00:47:13;7.83;;;7.23;;
2039;SDS011;1025;42.686;23.350;2023-04-29T00:49:40;9.20;;;7.20;;
2039;SDS011;1025;42.686;23.350;2023-04-29T00:52:06;7.90;;;7.20;;
2039;SDS011;1025;42.686;23.350;2023-04-29T00:54:33;10.60;;;7.20;;
2039;SDS011;1025;42.686;23.350;2023-04-29T00:57:00;14.20;;;6.20;;
2039;SDS011;1025;42.686;23.350;2023-04-29T00:59:28;8.57;;;7.33;;
2039;SDS011;1025;42.686;23.350;2023-04-29T01:01:58;10.03;;;7.40;;
2039;SDS011;1025;42.686;23.350;2023-04-29T01:04:24;6.80;;;6.20;;
2039;SDS011;1025;42.686;23.350;2023-04-29T01:06:53;12.93;;;7.27;;
2039;SDS011;1025;42.686;23.350;2023-04-29T01:09:26;9.87;;;7.43;;
2039;SDS011;1025;42.686;23.350;2023-04-29T01:11:58;11.40;;;7.60;;
2039;SDS011;1025;42.686;23.350;2023-04-29T01:14:30;6.93;;;6.37;;
2039;SDS011;1025;42.686;23.350;2023-04-29T01:17:01;12.50;;;8.00;;
2039;SDS011;1025;42.686;23.350;2023-04-29T01:19:34;9.97;;;8.63;;
2039;SDS011;1025;42.686;23.350;2023-04-29T01:22:05;13.87;;;7.00;;
2039;SDS011;1025;42.686;23.350;2023-04-29T01:24:33;24.77;;;8.87;;
2039;SDS011;1025;42.686;23.350;2023-04-29T01:27:01;13.97;;;8.10;;
2039;SDS011;1025;42.686;23.350;2023-04-29T01:29:31;10.50;;;7.83;;
2039;SDS011;1025;42.686;23.350;2023-04-29T01:32:02;8.37;;;7.40;;
2039;SDS011;1025;42.686;23.350;2023-04-29T01:34:30;13.00;;;6.53;;
2039;SDS011;1025;42.686;23.350;2023-04-29T01:37:04;7.23;;;6.63;;
2039;SDS011;1025;42.686;23.350;2023-04-29T01:39:35;8.80;;;6.67;;
2039;SDS011;1025;42.686;23.350;2023-04-29T01:42:04;7.30;;;6.60;;
2039;SDS011;1025;42.686;23.350;2023-04-29T01:44:31;7.57;;;6.90;;
2039;SDS011;1025;42.686;23.350;2023-04-29T01:46:58;7.57;;;6.30;;
2039;SDS011;1025;42.686;23.350;2023-04-29T01:49:26;7.43;;;6.70;;
2039;SDS011;1025;42.686;23.350;2023-04-29T01:51:53;13.80;;;8.00;;
2039;SDS011;1025;42.686;23.350;2023-04-29T01:54:20;8.70;;;7.90;;
2039;SDS011;1025;42.686;23.350;2023-04-29T01:56:48;8.73;;;7.17;;
2039;SDS011;1025;42.686;23.350;2023-04-29T01:59:16;12.13;;;9.30;;
2039;SDS011;1025;42.686;23.350;2023-04-29T02:01:42;7.93;;;7.20;;
2039;SDS011;1025;42.686;23.350;2023-04-29T02:04:09;10.57;;;6.83;;
2039;SDS011;1025;42.686;23.350;2023-04-29T02:06:35;10.43;;;6.37;;
2039;SDS011;1025;42.686;23.350;2023-04-29T02:09:02;8.23;;;7.40;;
2039;SDS011;1025;42.686;23.350;2023-04-29T02:11:29;9.97;;;9.00;;
2039;SDS011;1025;42.686;23.350;2023-04-29T02:13:57;7.90;;;6.90;;
2039;SDS011;1025;42.686;23.350;2023-04-29T02:16:23;6.97;;;6.37;;
2039;SDS011;1025;42.686;23.350;2023-04-29T02:18:50;7.47;;;6.77;;
2039;SDS011;1025;42.686;23.350;2023-04-29T02:21:16;9.60;;;6.90;;
2039;SDS011;1025;42.686;23.350;2023-04-29T02:23:43;12.77;;;8.20;;
2039;SDS011;1025;42.686;23.350;2023-04-29T02:26:09;14.10;;;7.60;;
2039;SDS011;1025;42.686;23.350;2023-04-29T02:28:36;8.63;;;7.10;;
2039;SDS011;1025;42.686;23.350;2023-04-29T02:31:04;11.40;;;9.50;;
2039;SDS011;1025;42.686;23.350;2023-04-29T02:33:30;10.40;;;8.07;;
2039;SDS011;1025;42.686;23.350;2023-04-29T02:35:57;11.10;;;8.33;;
2039;SDS011;1025;42.686;23.350;2023-04-29T02:38:24;7.13;;;6.43;;
2039;SDS011;1025;42.686;23.350;2023-04-29T02:40:51;9.60;;;7.30;;
2039;SDS011;1025;42.686;23.350;2023-04-29T02:43:17;9.93;;;7.60;;
2039;SDS011;1025;42.686;23.350;2023-04-29T02:45:44;8.33;;;6.77;;
2039;SDS011;1025;42.686;23.350;2023-04-29T02:48:11;8.27;;;7.43;;
2039;SDS011;1025;42.686;23.350;2023-04-29T02:50:38;9.37;;;7.47;;
2039;SDS011;1025;42.686;23.350;2023-04-29T02:53:04;12.13;;;6.73;;
2039;SDS011;1025;42.686;23.350;2023-04-29T02:55:31;9.00;;;8.13;;
2039;SDS011;1025;42.686;23.350;2023-04-29T02:57:58;11.50;;;7.80;;
2039;SDS011;1025;42.686;23.350;2023-04-29T03:00:24;9.90;;;8.90;;
2039;SDS011;1025;42.686;23.350;2023-04-29T03:02:51;14.87;;;7.60;;
2039;SDS011;1025;42.686;23.350;2023-04-29T03:05:19;10.23;;;8.10;;
2039;SDS011;1025;42.686;23.350;2023-04-29T03:07:45;11.80;;;7.73;;
2039;SDS011;1025;42.686;23.350;2023-04-29T03:10:12;8.70;;;7.50;;
2039;SDS011;1025;42.686;23.350;2023-04-29T03:12:39;11.20;;;8.73;;
2039;SDS011;1025;42.686;23.350;2023-04-29T03:15:06;9.53;;;7.43;;
2039;SDS011;1025;42.686;23.350;2023-04-29T03:17:34;13.60;;;8.73;;
2039;SDS011;1025;42.686;23.350;2023-04-29T03:20:01;9.10;;;8.20;;
2039;SDS011;1025;42.686;23.350;2023-04-29T03:22:29;12.77;;;8.40;;
2039;SDS011;1025;42.686;23.350;2023-04-29T03:24:55;8.77;;;7.90;;
2039;SDS011;1025;42.686;23.350;2023-04-29T03:27:22;21.20;;;11.90;;
2039;SDS011;1025;42.686;23.350;2023-04-29T03:29:48;11.00;;;8.63;;
2039;SDS011;1025;42.686;23.350;2023-04-29T03:32:15;11.07;;;8.47;;
2039;SDS011;1025;42.686;23.350;2023-04-29T03:34:41;7.43;;;6.73;;
2039;SDS011;1025;42.686;23.350;2023-04-29T03:37:08;14.83;;;8.40;;
2039;SDS011;1025;42.686;23.350;2023-04-29T03:39:37;15.97;;;8.90;;
2039;SDS011;1025;42.686;23.350;2023-04-29T03:42:06;10.53;;;9.53;;
2039;SDS011;1025;42.686;23.350;2023-04-29T03:44:34;13.53;;;9.67;;
2039;SDS011;1025;42.686;23.350;2023-04-29T03:47:00;11.03;;;8.70;;
2039;SDS011;1025;42.686;23.350;2023-04-29T03:49:26;20.47;;;9.10;;
2039;SDS011;1025;42.686;23.350;2023-04-29T03:51:53;22.27;;;13.17;;
2039;SDS011;1025;42.686;23.350;2023-04-29T03:54:19;10.20;;;8.40;;
2039;SDS011;1025;42.686;23.350;2023-04-29T03:56:48;15.60;;;8.70;;
2039;SDS011;1025;42.686;23.350;2023-04-29T03:59:14;11.43;;;8.50;;
2039;SDS011;1025;42.686;23.350;2023-04-29T04:01:41;9.57;;;7.63;;
2039;SDS011;1025;42.686;23.350;2023-04-29T04:04:07;9.40;;;6.90;;
2039;SDS011;1025;42.686;23.350;2023-04-29T04:06:34;8.37;;;7.57;;
2039;SDS011;1025;42.686;23.350;2023-04-29T04:09:00;11.90;;;8.67;;
2039;SDS011;1025;42.686;23.350;2023-04-29T04:11:27;8.63;;;7.40;;
2039;SDS011;1025;42.686;23.350;2023-04-29T04:13:54;13.23;;;8.67;;
2039;SDS011;1025;42.686;23.350;2023-04-29T04:16:21;13.07;;;8.40;;
2039;SDS011;1025;42.686;23.350;2023-04-29T04:18:47;18.93;;;9.70;;
2039;SDS011;1025;42.686;23.350;2023-04-29T04:21:14;11.00;;;8.60;;
2039;SDS011;1025;42.686;23.350;2023-04-29T04:23:41;11.93;;;9.10;;
2039;SDS011;1025;42.686;23.350;2023-04-29T04:26:08;17.43;;;9.37;;
2039;SDS011;1025;42.686;23.350;2023-04-29T04:28:35;26.73;;;10.43;;
2039;SDS011;1025;42.686;23.350;2023-04-29T04:31:04;12.10;;;8.20;;
2039;SDS011;1025;42.686;23.350;2023-04-29T04:33:30;14.37;;;7.57;;
2039;SDS011;1025;42.686;23.350;2023-04-29T04:35:58;18.50;;;7.57;;
2039;SDS011;1025;42.686;23.350;2023-04-29T04:38:25;9.73;;;7.40;;
2039;SDS011;1025;42.686;23.350;2023-04-29T04:40:52;7.47;;;6.77;;
2039;SDS011;1025;42.686;23.350;2023-04-29T04:43:18;12.63;;;8.10;;
2039;SDS011;1025;42.686;23.350;2023-04-29T04:45:45;10.30;;;6.93;;
2039;SDS011;1025;42.686;23.350;2023-04-29T04:48:13;15.53;;;10.40;;
2039;SDS011;1025;42.686;23.350;2023-04-29T04:50:39;12.33;;;7.60;;
2039;SDS011;1025;42.686;23.350;2023-04-29T04:53:07;8.27;;;7.00;;
2039;SDS011;1025;42.686;23.350;2023-04-29T04:55:34;18.17;;;7.70;;
2039;SDS011;1025;42.686;23.350;2023-04-29T04:58:00;9.90;;;6.37;;
2039;SDS011;1025;42.686;23.350;2023-04-29T05:00:27;12.73;;;7.40;;
2039;SDS011;1025;42.686;23.350;2023-04-29T05:02:53;11.60;;;9.17;;
2039;SDS011;1025;42.686;23.350;2023-04-29T05:05:21;10.17;;;8.40;;
2039;SDS011;1025;42.686;23.350;2023-04-29T05:07:48;14.83;;;9.20;;
2039;SDS011;1025;42.686;23.350;2023-04-29T05:10:14;17.03;;;10.00;;
2039;SDS011;1025;42.686;23.350;2023-04-29T05:12:41;14.67;;;8.90;;
2039;SDS011;1025;42.686;23.350;2023-04-29T05:15:07;14.90;;;9.50;;
2039;SDS011;1025;42.686;23.350;2023-04-29T05:17:34;9.27;;;8.43;;
2039;SDS011;1025;42.686;23.350;2023-04-29T05:20:01;13.57;;;9.30;;
2039;SDS011;1025;42.686;23.350;2023-04-29T05:22:29;10.60;;;8.00;;
2039;SDS011;1025;42.686;23.350;2023-04-29T05:24:55;12.00;;;8.87;;
2039;SDS011;1025;42.686;23.350;2023-04-29T05:27:27;22.33;;;10.80;;
2039;SDS011;1025;42.686;23.350;2023-04-29T05:29:53;9.53;;;8.60;;
2039;SDS011;1025;42.686;23.350;2023-04-29T05:32:19;10.97;;;7.90;;
2039;SDS011;1025;42.686;23.350;2023-04-29T05:34:46;11.13;;;8.33;;
2039;SDS011;1025;42.686;23.350;2023-04-29T05:37:13;14.27;;;10.07;;
2039;SDS011;1025;42.686;23.350;2023-04-29T05:39:41;15.43;;;9.50;;
2039;SDS011;1025;42.686;23.350;2023-04-29T05:42:07;16.33;;;10.40;;
2039;SDS011;1025;42.686;23.350;2023-04-29T05:44:34;12.37;;;8.77;;
2039;SDS011;1025;42.686;23.350;2023-04-29T05:47:00;20.77;;;11.40;;
2039;SDS011;1025;42.686;23.350;2023-04-29T05:49:27;10.77;;;8.50;;
2039;SDS011;1025;42.686;23.350;2023-04-29T05:51:53;14.20;;;8.87;;
2039;SDS011;1025;42.686;23.350;2023-04-29T05:54:20;15.47;;;9.70;;
2039;SDS011;1025;42.686;23.350;2023-04-29T05:56:48;26.30;;;10.83;;
2039;SDS011;1025;42.686;23.350;2023-04-29T05:59:15;11.13;;;10.03;;
2039;SDS011;1025;42.686;23.350;2023-04-29T06:01:41;13.40;;;8.83;;
2039;SDS011;1025;42.686;23.350;2023-04-29T06:04:08;12.57;;;8.90;;
2039;SDS011;1025;42.686;23.350;2023-04-29T06:06:34;11.40;;;7.93;;
2039;SDS011;1025;42.686;23.350;2023-04-29T06:09:01;13.80;;;7.97;;
2039;SDS011;1025;42.686;23.350;2023-04-29T06:11:28;10.90;;;6.53;;
2039;SDS011;1025;42.686;23.350;2023-04-29T06:13:56;14.73;;;8.10;;
2039;SDS011;1025;42.686;23.350;2023-04-29T06:16:23;11.67;;;7.30;;
2039;SDS011;1025;42.686;23.350;2023-04-29T06:18:49;13.00;;;8.90;;
2039;SDS011;1025;42.686;23.350;2023-04-29T06:21:16;20.07;;;8.40;;
2039;SDS011;1025;42.686;23.350;2023-04-29T06:23:42;16.13;;;7.00;;
2039;SDS011;1025;42.686;23.350;2023-04-29T06:26:09;11.93;;;6.90;;
2039;SDS011;1025;42.686;23.350;2023-04-29T06:28:35;13.53;;;7.10;;
2039;SDS011;1025;42.686;23.350;2023-04-29T06:31:03;7.57;;;5.53;;
2039;SDS011;1025;42.686;23.350;2023-04-29T06:33:30;5.70;;;5.10;;
2039;SDS011;1025;42.686;23.350;2023-04-29T06:35:58;11.23;;;6.00;;
2039;SDS011;1025;42.686;23.350;2023-04-29T06:38:24;10.33;;;6.93;;
2039;SDS011;1025;42.686;23.350;2023-04-29T06:40:51;7.00;;;6.27;;
2039;SDS011;1025;42.686;23.350;2023-04-29T06:43:17;5.90;;;4.87;;
2039;SDS011;1025;42.686;23.350;2023-04-29T06:45:44;5.20;;;4.67;;
2039;SDS011;1025;42.686;23.350;2023-04-29T06:48:13;6.53;;;5.50;;
2039;SDS011;1025;42.686;23.350;2023-04-29T06:50:47;7.17;;;6.30;;
2039;SDS011;1025;42.686;23.350;2023-04-29T06:53:14;7.57;;;5.57;;
2039;SDS011;1025;42.686;23.350;2023-04-29T06:55:40;6.47;;;5.77;;
2039;SDS011;1025;42.686;23.350;2023-04-29T06:58:07;5.60;;;4.47;;
2039;SDS011;1025;42.686;23.350;2023-04-29T07:00:33;7.30;;;5.53;;
2039;SDS011;1025;42.686;23.350;2023-04-29T07:03:00;7.80;;;5.33;;
2039;SDS011;1025;42.686;23.350;2023-04-29T07:05:28;8.20;;;4.80;;
2039;SDS011;1025;42.686;23.350;2023-04-29T07:07:55;8.37;;;6.27;;
2039;SDS011;1025;42.686;23.350;2023-04-29T07:10:21;6.90;;;6.23;;
2039;SDS011;1025;42.686;23.350;2023-04-29T07:12:48;8.77;;;7.87;;
2039;SDS011;1025;42.686;23.350;2023-04-29T07:15:15;15.93;;;6.70;;
2039;SDS011;1025;42.686;23.350;2023-04-29T07:17:41;7.73;;;6.33;;
2039;SDS011;1025;42.686;23.350;2023-04-29T07:20:08;5.77;;;4.73;;
2039;SDS011;1025;42.686;23.350;2023-04-29T07:22:36;12.80;;;7.67;;
2039;SDS011;1025;42.686;23.350;2023-04-29T07:25:03;7.00;;;5.87;;
2039;SDS011;1025;42.686;23.350;2023-04-29T07:27:31;7.97;;;6.37;;
2039;SDS011;1025;42.686;23.350;2023-04-29T07:29:58;6.23;;;5.20;;
2039;SDS011;1025;42.686;23.350;2023-04-29T07:32:25;13.03;;;9.63;;
2039;SDS011;1025;42.686;23.350;2023-04-29T07:34:51;7.37;;;5.40;;
2039;SDS011;1025;42.686;23.350;2023-04-29T07:37:18;13.20;;;7.73;;
2039;SDS011;1025;42.686;23.350;2023-04-29T07:39:46;7.90;;;5.80;;
2039;SDS011;1025;42.686;23.350;2023-04-29T07:42:13;5.60;;;5.07;;
2039;SDS011;1025;42.686;23.350;2023-04-29T07:44:39;5.37;;;4.93;;
2039;SDS011;1025;42.686;23.350;2023-04-29T07:47:06;5.63;;;5.03;;
2039;SDS011;1025;42.686;23.350;2023-04-29T07:49:32;7.60;;;5.83;;
2039;SDS011;1025;42.686;23.350;2023-04-29T07:51:59;7.97;;;6.37;;
2039;SDS011;1025;42.686;23.350;2023-04-29T07:54:26;12.20;;;7.20;;
2039;SDS011;1025;42.686;23.350;2023-04-29T07:56:56;10.60;;;7.30;;
2039;SDS011;1025;42.686;23.350;2023-04-29T07:59:22;15.33;;;7.23;;
2039;SDS011;1025;42.686;23.350;2023-04-29T08:01:49;9.20;;;6.23;;
2039;SDS011;1025;42.686;23.350;2023-04-29T08:04:16;6.50;;;5.63;;
2039;SDS011;1025;42.686;23.350;2023-04-29T08:06:43;12.30;;;7.90;;
2039;SDS011;1025;42.686;23.350;2023-04-29T08:09:09;8.97;;;7.13;;
2039;SDS011;1025;42.686;23.350;2023-04-29T08:11:36;6.40;;;5.70;;
2039;SDS011;1025;42.686;23.350;2023-04-29T08:14:05;11.00;;;6.30;;
2039;SDS011;1025;42.686;23.350;2023-04-29T08:16:32;8.00;;;5.50;;
2039;SDS011;1025;42.686;23.350;2023-04-29T08:18:59;6.87;;;6.17;;
2039;SDS011;1025;42.686;23.350;2023-04-29T08:21:26;7.77;;;7.03;;
2039;SDS011;1025;42.686;23.350;2023-04-29T08:23:53;13.87;;;6.80;;
2039;SDS011;1025;42.686;23.350;2023-04-29T08:26:19;6.10;;;4.90;;
2039;SDS011;1025;42.686;23.350;2023-04-29T08:28:46;10.10;;;6.00;;
2039;SDS011;1025;42.686;23.350;2023-04-29T08:31:17;8.13;;;6.00;;
2039;SDS011;1025;42.686;23.350;2023-04-29T08:33:44;11.10;;;4.70;;
2039;SDS011;1025;42.686;23.350;2023-04-29T08:36:11;7.50;;;5.17;;
2039;SDS011;1025;42.686;23.350;2023-04-29T08:38:38;5.23;;;4.77;;
2039;SDS011;1025;42.686;23.350;2023-04-29T08:41:06;6.43;;;4.90;;
2039;SDS011;1025;42.686;23.350;2023-04-29T08:43:33;8.90;;;5.80;;
2039;SDS011;1025;42.686;23.350;2023-04-29T08:46:01;27.67;;;21.63;;
2039;SDS011;1025;42.686;23.350;2023-04-29T08:48:29;5.73;;;4.37;;
2039;SDS011;1025;42.686;23.350;2023-04-29T08:50:56;10.30;;;7.50;;
2039;SDS011;1025;42.686;23.350;2023-04-29T08:53:23;5.33;;;4.77;;
2039;SDS011;1025;42.686;23.350;2023-04-29T08:55:50;7.27;;;5.43;;
2039;SDS011;1025;42.686;23.350;2023-04-29T08:58:17;6.17;;;4.50;;
2039;SDS011;1025;42.686;23.350;2023-04-29T09:00:44;7.23;;;5.30;;
2039;SDS011;1025;42.686;23.350;2023-04-29T09:03:11;8.03;;;4.60;;
2039;SDS011;1025;42.686;23.350;2023-04-29T09:05:41;10.70;;;6.27;;
2039;SDS011;1025;42.686;23.350;2023-04-29T09:08:08;5.03;;;4.70;;
2039;SDS011;1025;42.686;23.350;2023-04-29T09:10:36;8.67;;;5.70;;
2039;SDS011;1025;42.686;23.350;2023-04-29T09:13:04;9.47;;;4.67;;
2039;SDS011;1025;42.686;23.350;2023-04-29T09:15:34;5.43;;;5.03;;
2039;SDS011;1025;42.686;23.350;2023-04-29T09:18:01;8.50;;;5.53;;
2039;SDS011;1025;42.686;23.350;2023-04-29T09:20:28;7.40;;;5.10;;
2039;SDS011;1025;42.686;23.350;2023-04-29T09:22:57;9.57;;;4.70;;
2039;SDS011;1025;42.686;23.350;2023-04-29T09:25:23;11.77;;;6.17;;
2039;SDS011;1025;42.686;23.350;2023-04-29T09:27:51;11.13;;;5.10;;
2039;SDS011;1025;42.686;23.350;2023-04-29T09:30:18;6.80;;;4.43;;
2039;SDS011;1025;42.686;23.350;2023-04-29T09:32:45;9.00;;;6.10;;
2039;SDS011;1025;42.686;23.350;2023-04-29T09:35:22;7.53;;;5.53;;
2039;SDS011;1025;42.686;23.350;2023-04-29T09:37:49;4.90;;;4.60;;
2039;SDS011;1025;42.686;23.350;2023-04-29T09:42:57;5.47;;;4.90;;
2039;SDS011;1025;42.686;23.350;2023-04-29T09:45:33;6.10;;;5.50;;
2039;SDS011;1025;42.686;23.350;2023-04-29T09:48:01;12.00;;;6.57;;
2039;SDS011;1025;42.686;23.350;2023-04-29T09:50:28;11.70;;;5.80;;
2039;SDS011;1025;42.686;23.350;2023-04-29T09:52:54;11.97;;;6.70;;
2039;SDS011;1025;42.686;23.350;2023-04-29T09:55:21;6.13;;;5.23;;
2039;SDS011;1025;42.686;23.350;2023-04-29T09:57:48;6.77;;;6.13;;
2039;SDS011;1025;42.686;23.350;2023-04-29T10:00:16;9.37;;;6.50;;
2039;SDS011;1025;42.686;23.350;2023-04-29T10:02:44;6.40;;;4.93;;
2039;SDS011;1025;42.686;23.350;2023-04-29T10:05:11;5.77;;;4.90;;
2039;SDS011;1025;42.686;23.350;2023-04-29T10:07:39;14.57;;;5.70;;
2039;SDS011;1025;42.686;23.350;2023-04-29T10:10:06;16.07;;;6.93;;
2039;SDS011;1025;42.686;23.350;2023-04-29T10:12:35;7.60;;;6.70;;
2039;SDS011;1025;42.686;23.350;2023-04-29T10:15:03;8.57;;;5.17;;
2039;SDS011;1025;42.686;23.350;2023-04-29T10:17:35;7.53;;;5.50;;
2039;SDS011;1025;42.686;23.350;2023-04-29T10:20:02;9.17;;;5.50;;
2039;SDS011;1025;42.686;23.350;2023-04-29T10:22:32;7.77;;;5.13;;
2039;SDS011;1025;42.686;23.350;2023-04-29T10:25:00;7.47;;;6.30;;
2039;SDS011;1025;42.686;23.350;2023-04-29T10:27:27;9.33;;;5.23;;
2039;SDS011;1025;42.686;23.350;2023-04-29T10:29:55;15.20;;;8.60;;
2039;SDS011;1025;42.686;23.350;2023-04-29T10:32:22;6.73;;;4.63;;
2039;SDS011;1025;42.686;23.350;2023-04-29T10:34:50;6.30;;;4.37;;
2039;SDS011;1025;42.686;23.350;2023-04-29T10:37:17;8.70;;;4.80;;
2039;SDS011;1025;42.686;23.350;2023-04-29T10:39:46;10.27;;;5.43;;
2039;SDS011;1025;42.686;23.350;2023-04-29T10:42:19;8.73;;;5.47;;
2039;SDS011;1025;42.686;23.350;2023-04-29T10:47:32;13.07;;;5.53;;
2039;SDS011;1025;42.686;23.350;2023-04-29T10:50:03;8.13;;;5.30;;
2039;SDS011;1025;42.686;23.350;2023-04-29T10:52:29;17.60;;;7.30;;
2039;SDS011;1025;42.686;23.350;2023-04-29T10:55:03;10.03;;;4.50;;
2039;SDS011;1025;42.686;23.350;2023-04-29T10:57:31;8.40;;;4.93;;
2039;SDS011;1025;42.686;23.350;2023-04-29T10:59:57;5.97;;;5.40;;
2039;SDS011;1025;42.686;23.350;2023-04-29T11:02:24;6.30;;;5.70;;
2039;SDS011;1025;42.686;23.350;2023-04-29T11:05:06;13.93;;;4.53;;
2039;SDS011;1025;42.686;23.350;2023-04-29T11:07:33;4.20;;;3.77;;
2039;SDS011;1025;42.686;23.350;2023-04-29T11:10:00;17.70;;;5.70;;
2039;SDS011;1025;42.686;23.350;2023-04-29T11:12:27;8.17;;;5.83;;
2039;SDS011;1025;42.686;23.350;2023-04-29T11:14:53;14.50;;;9.63;;
2039;SDS011;1025;42.686;23.350;2023-04-29T11:17:27;9.50;;;4.73;;
2039;SDS011;1025;42.686;23.350;2023-04-29T11:20:00;4.57;;;3.80;;
2039;SDS011;1025;42.686;23.350;2023-04-29T11:22:28;7.43;;;3.30;;
2039;SDS011;1025;42.686;23.350;2023-04-29T11:24:58;3.63;;;3.33;;
2039;SDS011;1025;42.686;23.350;2023-04-29T11:27:25;5.07;;;3.60;;
2039;SDS011;1025;42.686;23.350;2023-04-29T11:29:52;8.17;;;4.43;;
2039;SDS011;1025;42.686;23.350;2023-04-29T11:32:22;6.63;;;4.40;;
2039;SDS011;1025;42.686;23.350;2023-04-29T11:34:49;6.37;;;4.83;;
2039;SDS011;1025;42.686;23.350;2023-04-29T11:37:20;12.27;;;4.37;;
2039;SDS011;1025;42.686;23.350;2023-04-29T11:39:48;2.40;;;2.20;;
2039;SDS011;1025;42.686;23.350;2023-04-29T11:42:19;5.00;;;3.00;;
2039;SDS011;1025;42.686;23.350;2023-04-29T11:44:46;9.87;;;4.37;;
2039;SDS011;1025;42.686;23.350;2023-04-29T11:47:12;45.50;;;8.47;;
2039;SDS011;1025;42.686;23.350;2023-04-29T11:49:39;3.80;;;3.50;;
2039;SDS011;1025;42.686;23.350;2023-04-29T11:52:06;8.70;;;4.17;;
2039;SDS011;1025;42.686;23.350;2023-04-29T11:54:33;7.50;;;3.20;;
2039;SDS011;1025;42.686;23.350;2023-04-29T11:57:01;4.03;;;3.17;;
2039;SDS011;1025;42.686;23.350;2023-04-29T11:59:29;14.57;;;4.60;;
2039;SDS011;1025;42.686;23.350;2023-04-29T12:01:56;4.00;;;3.37;;
2039;SDS011;1025;42.686;23.350;2023-04-29T12:04:23;5.83;;;3.23;;
2039;SDS011;1025;42.686;23.350;2023-04-29T12:06:50;11.67;;;3.27;;
2039;SDS011;1025;42.686;23.350;2023-04-29T12:09:17;4.13;;;2.93;;
2039;SDS011;1025;42.686;23.350;2023-04-29T12:11:43;9.50;;;3.50;;
2039;SDS011;1025;42.686;23.350;2023-04-29T12:14:12;14.17;;;5.20;;
2039;SDS011;1025;42.686;23.350;2023-04-29T12:16:39;6.17;;;3.67;;
2039;SDS011;1025;42.686;23.350;2023-04-29T12:19:06;4.27;;;3.07;;
2039;SDS011;1025;42.686;23.350;2023-04-29T12:21:34;4.87;;;2.67;;
2039;SDS011;1025;42.686;23.350;2023-04-29T12:24:01;5.37;;;3.40;;
2039;SDS011;1025;42.686;23.350;2023-04-29T12:26:28;5.87;;;3.37;;
2039;SDS011;1025;42.686;23.350;2023-04-29T12:28:56;4.47;;;3.90;;
2039;SDS011;1025;42.686;23.350;2023-04-29T12:31:25;2.70;;;2.50;;
2039;SDS011;1025;42.686;23.350;2023-04-29T12:33:57;7.90;;;4.33;;
2039;SDS011;1025;42.686;23.350;2023-04-29T12:36:23;11.43;;;4.67;;
2039;SDS011;1025;42.686;23.350;2023-04-29T12:38:51;6.30;;;3.47;;
2039;SDS011;1025;42.686;23.350;2023-04-29T12:41:18;3.97;;;2.80;;
2039;SDS011;1025;42.686;23.350;2023-04-29T12:43:45;3.20;;;3.00;;
2039;SDS011;1025;42.686;23.350;2023-04-29T12:46:11;5.40;;;3.27;;
2039;SDS011;1025;42.686;23.350;2023-04-29T12:48:40;3.73;;;2.70;;
2039;SDS011;1025;42.686;23.350;2023-04-29T12:51:08;10.80;;;4.90;;
2039;SDS011;1025;42.686;23.350;2023-04-29T12:53:34;4.30;;;2.97;;
2039;SDS011;1025;42.686;23.350;2023-04-29T12:56:01;7.87;;;3.17;;
2039;SDS011;1025;42.686;23.350;2023-04-29T12:58:27;12.43;;;4.67;;
2039;SDS011;1025;42.686;23.350;2023-04-29T13:00:54;4.33;;;2.90;;
2039;SDS011;1025;42.686;23.350;2023-04-29T13:03:21;11.93;;;3.90;;
2039;SDS011;1025;42.686;23.350;2023-04-29T13:05:49;3.90;;;3.07;;
2039;SDS011;1025;42.686;23.350;2023-04-29T13:08:17;4.40;;;3.17;;
2039;SDS011;1025;42.686;23.350;2023-04-29T13:10:44;8.20;;;3.30;;
2039;SDS011;1025;42.686;23.350;2023-04-29T13:13:10;4.10;;;2.90;;
2039;SDS011;1025;42.686;23.350;2023-04-29T13:15:37;3.43;;;3.13;;
2039;SDS011;1025;42.686;23.350;2023-04-29T13:18:04;8.17;;;3.30;;
2039;SDS011;1025;42.686;23.350;2023-04-29T13:20:30;2.77;;;2.40;;
2039;SDS011;1025;42.686;23.350;2023-04-29T13:22:59;6.43;;;2.93;;
2039;SDS011;1025;42.686;23.350;2023-04-29T13:25:25;16.07;;;3.00;;
2039;SDS011;1025;42.686;23.350;2023-04-29T13:27:52;3.70;;;2.47;;
2039;SDS011;1025;42.686;23.350;2023-04-29T13:30:18;3.50;;;2.30;;
2039;SDS011;1025;42.686;23.350;2023-04-29T13:32:45;10.20;;;3.73;;
2039;SDS011;1025;42.686;23.350;2023-04-29T13:35:12;3.70;;;2.30;;
2039;SDS011;1025;42.686;23.350;2023-04-29T13:37:38;9.20;;;2.57;;
2039;SDS011;1025;42.686;23.350;2023-04-29T13:40:07;19.87;;;4.20;;
2039;SDS011;1025;42.686;23.350;2023-04-29T13:42:34;4.07;;;2.57;;
2039;SDS011;1025;42.686;23.350;2023-04-29T13:45:01;5.03;;;2.67;;
2039;SDS011;1025;42.686;23.350;2023-04-29T13:47:28;4.27;;;1.73;;
2039;SDS011;1025;42.686;23.350;2023-04-29T13:49:54;7.93;;;6.97;;
2039;SDS011;1025;42.686;23.350;2023-04-29T13:52:21;2.80;;;2.33;;
2039;SDS011;1025;42.686;23.350;2023-04-29T13:54:48;6.20;;;2.77;;
2039;SDS011;1025;42.686;23.350;2023-04-29T13:57:16;4.90;;;2.63;;
2039;SDS011;1025;42.686;23.350;2023-04-29T13:59:43;9.63;;;3.77;;
2039;SDS011;1025;42.686;23.350;2023-04-29T14:02:10;4.00;;;2.47;;
2039;SDS011;1025;42.686;23.350;2023-04-29T14:04:38;2.23;;;2.03;;
2039;SDS011;1025;42.686;23.350;2023-04-29T14:07:04;2.53;;;2.33;;
2039;SDS011;1025;42.686;23.350;2023-04-29T14:09:31;4.93;;;2.77;;
2039;SDS011;1025;42.686;23.350;2023-04-29T14:11:58;4.77;;;2.13;;
2039;SDS011;1025;42.686;23.350;2023-04-29T14:14:26;4.13;;;2.47;;
2039;SDS011;1025;42.686;23.350;2023-04-29T14:16:52;5.77;;;4.57;;
2039;SDS011;1025;42.686;23.350;2023-04-29T14:19:19;3.43;;;2.70;;
2039;SDS011;1025;42.686;23.350;2023-04-29T14:21:45;2.43;;;2.20;;
2039;SDS011;1025;42.686;23.350;2023-04-29T14:24:12;2.20;;;2.10;;
2039;SDS011;1025;42.686;23.350;2023-04-29T14:26:38;7.10;;;2.83;;
2039;SDS011;1025;42.686;23.350;2023-04-29T14:29:05;4.00;;;2.47;;
2039;SDS011;1025;42.686;23.350;2023-04-29T14:31:34;3.97;;;2.70;;
2039;SDS011;1025;42.686;23.350;2023-04-29T14:34:02;6.37;;;2.80;;
2039;SDS011;1025;42.686;23.350;2023-04-29T14:36:28;3.47;;;3.17;;
2039;SDS011;1025;42.686;23.350;2023-04-29T14:38:56;5.53;;;2.87;;
2039;SDS011;1025;42.686;23.350;2023-04-29T14:41:23;3.40;;;3.07;;
2039;SDS011;1025;42.686;23.350;2023-04-29T14:43:50;2.20;;;2.10;;
2039;SDS011;1025;42.686;23.350;2023-04-29T14:46:16;5.63;;;3.27;;
2039;SDS011;1025;42.686;23.350;2023-04-29T14:48:44;9.30;;;4.23;;
2039;SDS011;1025;42.686;23.350;2023-04-29T14:51:11;2.73;;;2.60;;
2039;SDS011;1025;42.686;23.350;2023-04-29T14:53:37;5.00;;;3.30;;
2039;SDS011;1025;42.686;23.350;2023-04-29T14:56:04;1.87;;;1.73;;
2039;SDS011;1025;42.686;23.350;2023-04-29T14:58:32;3.13;;;2.30;;
2039;SDS011;1025;42.686;23.350;2023-04-29T15:00:58;7.37;;;3.23;;